sensor_id;sensor_type;location;lat;lon;timestamp;temperature;humidity
68867;SHT30;56451;44.804;20.476;2023-11-19T00:00:57;6.88;62.65
68867;SHT30;56451;44.804;20.476;2023-11-19T00:03:23;6.80;62.47
68867;SHT30;56451;44.804;20.476;2023-11-19T00:05:49;6.71;62.91
68867;SHT30;56451;44.804;20.476;2023-11-19T00:08:16;6.70;62.99
68867;SHT30;56451;44.804;20.476;2023-11-19T00:10:42;6.60;62.99
68867;SHT30;56451;44.804;20.476;2023-11-19T00:13:09;6.58;63.38
68867;SHT30;56451;44.804;20.476;2023-11-19T00:15:35;6.61;63.30
68867;SHT30;56451;44.804;20.476;2023-11-19T00:18:01;6.68;63.23
68867;SHT30;56451;44.804;20.476;2023-11-19T00:20:30;6.63;63.05
68867;SHT30;56451;44.804;20.476;2023-11-19T00:22:56;6.57;63.36
68867;SHT30;56451;44.804;20.476;2023-11-19T00:25:23;6.54;63.55
68867;SHT30;56451;44.804;20.476;2023-11-19T00:27:50;6.57;63.47
68867;SHT30;56451;44.804;20.476;2023-11-19T00:30:17;6.46;64.03
68867;SHT30;56451;44.804;20.476;2023-11-19T00:32:43;6.23;64.59
68867;SHT30;56451;44.804;20.476;2023-11-19T00:35:09;6.19;64.97
68867;SHT30;56451;44.804;20.476;2023-11-19T00:37:42;6.16;65.00
68867;SHT30;56451;44.804;20.476;2023-11-19T00:40:08;6.09;65.08
68867;SHT30;56451;44.804;20.476;2023-11-19T00:42:36;5.99;65.20
68867;SHT30;56451;44.804;20.476;2023-11-19T00:45:04;5.94;65.65
68867;SHT30;56451;44.804;20.476;2023-11-19T00:47:36;5.98;65.23
68867;SHT30;56451;44.804;20.476;2023-11-19T00:50:02;6.03;65.16
68867;SHT30;56451;44.804;20.476;2023-11-19T00:52:28;6.02;65.03
68867;SHT30;56451;44.804;20.476;2023-11-19T00:54:54;6.03;65.03
68867;SHT30;56451;44.804;20.476;2023-11-19T00:57:21;6.06;64.96
68867;SHT30;56451;44.804;20.476;2023-11-19T00:59:46;6.05;64.59
68867;SHT30;56451;44.804;20.476;2023-11-19T01:02:13;6.10;64.61
68867;SHT30;56451;44.804;20.476;2023-11-19T01:04:40;6.13;64.49
68867;SHT30;56451;44.804;20.476;2023-11-19T01:07:06;6.17;64.20
68867;SHT30;56451;44.804;20.476;2023-11-19T01:09:32;6.17;64.09
68867;SHT30;56451;44.804;20.476;2023-11-19T01:12:01;6.17;64.12
68867;SHT30;56451;44.804;20.476;2023-11-19T01:14:28;6.07;64.09
68867;SHT30;56451;44.804;20.476;2023-11-19T01:16:54;5.95;64.38
68867;SHT30;56451;44.804;20.476;2023-11-19T01:19:23;5.96;64.55
68867;SHT30;56451;44.804;20.476;2023-11-19T01:21:50;5.89;65.01
68867;SHT30;56451;44.804;20.476;2023-11-19T01:24:17;5.75;65.34
68867;SHT30;56451;44.804;20.476;2023-11-19T01:26:46;5.71;65.69
68867;SHT30;56451;44.804;20.476;2023-11-19T01:29:15;5.81;65.62
68867;SHT30;56451;44.804;20.476;2023-11-19T01:31:42;5.88;64.99
68867;SHT30;56451;44.804;20.476;2023-11-19T01:34:10;5.88;64.99
68867;SHT30;56451;44.804;20.476;2023-11-19T01:36:37;5.92;64.80
68867;SHT30;56451;44.804;20.476;2023-11-19T01:39:03;5.92;64.55
68867;SHT30;56451;44.804;20.476;2023-11-19T01:41:35;5.91;64.55
68867;SHT30;56451;44.804;20.476;2023-11-19T01:44:02;5.92;64.43
68867;SHT30;56451;44.804;20.476;2023-11-19T01:46:29;5.92;64.43
68867;SHT30;56451;44.804;20.476;2023-11-19T01:48:56;5.95;64.27
68867;SHT30;56451;44.804;20.476;2023-11-19T01:51:23;5.94;63.99
68867;SHT30;56451;44.804;20.476;2023-11-19T01:53:49;5.94;64.16
68867;SHT30;56451;44.804;20.476;2023-11-19T01:56:15;5.88;64.30
68867;SHT30;56451;44.804;20.476;2023-11-19T01:58:42;5.86;64.51
68867;SHT30;56451;44.804;20.476;2023-11-19T02:01:10;5.84;64.50
68867;SHT30;56451;44.804;20.476;2023-11-19T02:03:38;5.85;64.38
68867;SHT30;56451;44.804;20.476;2023-11-19T02:06:04;5.92;64.40
68867;SHT30;56451;44.804;20.476;2023-11-19T02:08:30;5.91;64.04
68867;SHT30;56451;44.804;20.476;2023-11-19T02:10:57;5.84;64.10
68867;SHT30;56451;44.804;20.476;2023-11-19T02:13:26;5.79;64.29
68867;SHT30;56451;44.804;20.476;2023-11-19T02:15:52;5.75;64.26
68867;SHT30;56451;44.804;20.476;2023-11-19T02:18:27;5.77;64.28
68867;SHT30;56451;44.804;20.476;2023-11-19T02:20:59;5.82;63.95
68867;SHT30;56451;44.804;20.476;2023-11-19T02:23:30;5.84;64.21
68867;SHT30;56451;44.804;20.476;2023-11-19T02:26:18;5.78;64.25
68867;SHT30;56451;44.804;20.476;2023-11-19T02:28:46;5.69;64.56
68867;SHT30;56451;44.804;20.476;2023-11-19T02:31:12;5.64;64.87
68867;SHT30;56451;44.804;20.476;2023-11-19T02:33:38;5.74;64.79
68867;SHT30;56451;44.804;20.476;2023-11-19T02:36:05;5.78;64.52
68867;SHT30;56451;44.804;20.476;2023-11-19T02:38:33;5.82;64.07
68867;SHT30;56451;44.804;20.476;2023-11-19T02:40:59;5.72;64.49
68867;SHT30;56451;44.804;20.476;2023-11-19T02:43:28;5.72;64.54
68867;SHT30;56451;44.804;20.476;2023-11-19T02:45:54;5.75;64.71
68867;SHT30;56451;44.804;20.476;2023-11-19T02:48:21;5.68;64.88
68867;SHT30;56451;44.804;20.476;2023-11-19T02:50:47;5.55;64.90
68867;SHT30;56451;44.804;20.476;2023-11-19T02:53:13;5.51;64.98
68867;SHT30;56451;44.804;20.476;2023-11-19T02:55:39;5.47;64.99
68867;SHT30;56451;44.804;20.476;2023-11-19T02:58:06;5.37;65.41
68867;SHT30;56451;44.804;20.476;2023-11-19T03:00:45;5.30;65.51
68867;SHT30;56451;44.804;20.476;2023-11-19T03:03:20;5.33;65.60
68867;SHT30;56451;44.804;20.476;2023-11-19T03:05:48;5.38;65.49
68867;SHT30;56451;44.804;20.476;2023-11-19T03:08:15;5.33;65.64
68867;SHT30;56451;44.804;20.476;2023-11-19T03:10:42;5.40;65.37
68867;SHT30;56451;44.804;20.476;2023-11-19T03:13:12;5.47;64.81
68867;SHT30;56451;44.804;20.476;2023-11-19T03:15:40;5.27;65.27
68867;SHT30;56451;44.804;20.476;2023-11-19T03:18:07;5.33;65.12
68867;SHT30;56451;44.804;20.476;2023-11-19T03:20:33;5.27;65.27
68867;SHT30;56451;44.804;20.476;2023-11-19T03:22:59;5.24;65.38
68867;SHT30;56451;44.804;20.476;2023-11-19T03:25:27;5.29;65.35
68867;SHT30;56451;44.804;20.476;2023-11-19T03:27:59;5.30;65.20
68867;SHT30;56451;44.804;20.476;2023-11-19T03:33:32;5.43;64.90
68867;SHT30;56451;44.804;20.476;2023-11-19T03:36:06;5.37;65.13
68867;SHT30;56451;44.804;20.476;2023-11-19T03:38:36;5.40;65.02
68867;SHT30;56451;44.804;20.476;2023-11-19T03:41:10;5.33;65.25
68867;SHT30;56451;44.804;20.476;2023-11-19T03:43:39;5.26;65.28
68867;SHT30;56451;44.804;20.476;2023-11-19T03:46:21;5.26;65.32
68867;SHT30;56451;44.804;20.476;2023-11-19T03:48:49;5.27;65.22
68867;SHT30;56451;44.804;20.476;2023-11-19T03:51:15;5.22;65.37
68867;SHT30;56451;44.804;20.476;2023-11-19T03:53:45;5.29;65.12
68867;SHT30;56451;44.804;20.476;2023-11-19T03:56:11;5.30;65.13
68867;SHT30;56451;44.804;20.476;2023-11-19T03:58:38;5.33;65.26
68867;SHT30;56451;44.804;20.476;2023-11-19T04:01:05;5.34;65.21
68867;SHT30;56451;44.804;20.476;2023-11-19T04:03:31;5.29;65.25
68867;SHT30;56451;44.804;20.476;2023-11-19T04:05:58;5.29;65.34
68867;SHT30;56451;44.804;20.476;2023-11-19T04:08:24;5.34;65.06
68867;SHT30;56451;44.804;20.476;2023-11-19T04:10:50;5.33;65.20
68867;SHT30;56451;44.804;20.476;2023-11-19T04:13:16;5.27;65.41
68867;SHT30;56451;44.804;20.476;2023-11-19T04:15:42;5.31;65.25
68867;SHT30;56451;44.804;20.476;2023-11-19T04:18:09;5.26;65.24
68867;SHT30;56451;44.804;20.476;2023-11-19T04:20:35;5.27;65.30
68867;SHT30;56451;44.804;20.476;2023-11-19T04:23:02;5.30;65.48
68867;SHT30;56451;44.804;20.476;2023-11-19T04:25:28;5.33;65.18
68867;SHT30;56451;44.804;20.476;2023-11-19T04:27:54;5.19;65.27
68867;SHT30;56451;44.804;20.476;2023-11-19T04:30:20;5.20;65.28
68867;SHT30;56451;44.804;20.476;2023-11-19T04:32:46;5.16;65.31
68867;SHT30;56451;44.804;20.476;2023-11-19T04:35:12;5.22;65.29
68867;SHT30;56451;44.804;20.476;2023-11-19T04:37:38;5.27;65.33
68867;SHT30;56451;44.804;20.476;2023-11-19T04:40:05;5.26;65.31
68867;SHT30;56451;44.804;20.476;2023-11-19T04:42:31;5.24;65.55
68867;SHT30;56451;44.804;20.476;2023-11-19T04:44:58;5.24;65.47
68867;SHT30;56451;44.804;20.476;2023-11-19T04:47:24;5.31;65.30
68867;SHT30;56451;44.804;20.476;2023-11-19T04:49:49;5.30;65.35
68867;SHT30;56451;44.804;20.476;2023-11-19T04:52:15;5.36;65.12
68867;SHT30;56451;44.804;20.476;2023-11-19T04:54:45;5.40;65.08
68867;SHT30;56451;44.804;20.476;2023-11-19T04:57:11;5.44;64.82
68867;SHT30;56451;44.804;20.476;2023-11-19T04:59:37;5.46;64.71
68867;SHT30;56451;44.804;20.476;2023-11-19T05:02:03;5.43;64.82
68867;SHT30;56451;44.804;20.476;2023-11-19T05:04:30;5.46;64.82
68867;SHT30;56451;44.804;20.476;2023-11-19T05:06:56;5.43;64.86
68867;SHT30;56451;44.804;20.476;2023-11-19T05:09:22;5.44;64.84
68867;SHT30;56451;44.804;20.476;2023-11-19T05:11:48;5.52;64.63
68867;SHT30;56451;44.804;20.476;2023-11-19T05:14:14;5.54;64.68
68867;SHT30;56451;44.804;20.476;2023-11-19T05:16:41;5.52;64.47
68867;SHT30;56451;44.804;20.476;2023-11-19T05:19:07;5.57;64.44
68867;SHT30;56451;44.804;20.476;2023-11-19T05:21:32;5.59;64.22
68867;SHT30;56451;44.804;20.476;2023-11-19T05:24:00;5.59;64.20
68867;SHT30;56451;44.804;20.476;2023-11-19T05:26:26;5.59;64.07
68867;SHT30;56451;44.804;20.476;2023-11-19T05:28:52;5.61;64.01
68867;SHT30;56451;44.804;20.476;2023-11-19T05:31:18;5.64;63.74
68867;SHT30;56451;44.804;20.476;2023-11-19T05:33:44;5.61;63.59
68867;SHT30;56451;44.804;20.476;2023-11-19T05:36:11;5.59;63.55
68867;SHT30;56451;44.804;20.476;2023-11-19T05:38:38;5.62;63.54
68867;SHT30;56451;44.804;20.476;2023-11-19T05:41:05;5.67;63.29
68867;SHT30;56451;44.804;20.476;2023-11-19T05:43:31;5.61;63.41
68867;SHT30;56451;44.804;20.476;2023-11-19T05:45:57;5.61;63.59
68867;SHT30;56451;44.804;20.476;2023-11-19T05:48:25;5.59;63.62
68867;SHT30;56451;44.804;20.476;2023-11-19T05:50:52;5.62;63.81
68867;SHT30;56451;44.804;20.476;2023-11-19T05:53:18;5.59;63.49
68867;SHT30;56451;44.804;20.476;2023-11-19T05:55:44;5.67;63.46
68867;SHT30;56451;44.804;20.476;2023-11-19T05:58:26;5.71;63.38
68867;SHT30;56451;44.804;20.476;2023-11-19T06:00:52;5.68;63.45
68867;SHT30;56451;44.804;20.476;2023-11-19T06:03:18;5.72;63.47
68867;SHT30;56451;44.804;20.476;2023-11-19T06:05:45;5.69;63.64
68867;SHT30;56451;44.804;20.476;2023-11-19T06:08:12;5.74;63.66
68867;SHT30;56451;44.804;20.476;2023-11-19T06:10:42;5.75;63.55
68867;SHT30;56451;44.804;20.476;2023-11-19T06:13:08;5.74;63.65
68867;SHT30;56451;44.804;20.476;2023-11-19T06:15:36;5.82;63.42
68867;SHT30;56451;44.804;20.476;2023-11-19T06:18:02;5.86;63.49
68867;SHT30;56451;44.804;20.476;2023-11-19T06:20:29;5.89;63.08
68867;SHT30;56451;44.804;20.476;2023-11-19T06:22:56;5.89;63.26
68867;SHT30;56451;44.804;20.476;2023-11-19T06:25:22;5.98;63.23
68867;SHT30;56451;44.804;20.476;2023-11-19T06:27:50;5.94;62.89
68867;SHT30;56451;44.804;20.476;2023-11-19T06:30:16;5.96;62.82
68867;SHT30;56451;44.804;20.476;2023-11-19T06:32:42;6.03;62.68
68867;SHT30;56451;44.804;20.476;2023-11-19T06:35:09;6.07;62.27
68867;SHT30;56451;44.804;20.476;2023-11-19T06:37:40;6.13;62.22
68867;SHT30;56451;44.804;20.476;2023-11-19T06:40:07;6.09;62.13
68867;SHT30;56451;44.804;20.476;2023-11-19T06:42:35;5.99;62.33
68867;SHT30;56451;44.804;20.476;2023-11-19T06:45:02;6.02;62.03
68867;SHT30;56451;44.804;20.476;2023-11-19T06:47:29;5.91;62.48
68867;SHT30;56451;44.804;20.476;2023-11-19T06:49:56;5.95;62.31
68867;SHT30;56451;44.804;20.476;2023-11-19T06:52:22;5.99;62.45
68867;SHT30;56451;44.804;20.476;2023-11-19T06:54:47;6.03;62.42
68867;SHT30;56451;44.804;20.476;2023-11-19T06:57:13;6.09;62.40
68867;SHT30;56451;44.804;20.476;2023-11-19T06:59:39;6.13;62.06
68867;SHT30;56451;44.804;20.476;2023-11-19T07:02:06;6.09;61.92
68867;SHT30;56451;44.804;20.476;2023-11-19T07:04:32;6.07;61.82
68867;SHT30;56451;44.804;20.476;2023-11-19T07:07:01;6.06;61.49
68867;SHT30;56451;44.804;20.476;2023-11-19T07:09:27;6.07;61.76
68867;SHT30;56451;44.804;20.476;2023-11-19T07:11:53;6.12;61.70
68867;SHT30;56451;44.804;20.476;2023-11-19T07:14:19;6.12;61.51
68867;SHT30;56451;44.804;20.476;2023-11-19T07:16:45;6.15;61.30
68867;SHT30;56451;44.804;20.476;2023-11-19T07:19:12;6.23;61.32
68867;SHT30;56451;44.804;20.476;2023-11-19T07:21:41;6.25;61.55
68867;SHT30;56451;44.804;20.476;2023-11-19T07:24:10;6.30;61.67
68867;SHT30;56451;44.804;20.476;2023-11-19T07:26:43;6.27;61.30
68867;SHT30;56451;44.804;20.476;2023-11-19T07:29:09;6.29;61.40
68867;SHT30;56451;44.804;20.476;2023-11-19T07:31:35;6.38;61.18
68867;SHT30;56451;44.804;20.476;2023-11-19T07:34:02;6.36;61.22
68867;SHT30;56451;44.804;20.476;2023-11-19T07:36:29;6.36;61.31
68867;SHT30;56451;44.804;20.476;2023-11-19T07:38:55;6.46;61.05
68867;SHT30;56451;44.804;20.476;2023-11-19T07:41:23;6.58;61.09
68867;SHT30;56451;44.804;20.476;2023-11-19T07:43:51;6.56;60.64
68867;SHT30;56451;44.804;20.476;2023-11-19T07:46:17;6.56;60.87
68867;SHT30;56451;44.804;20.476;2023-11-19T07:48:46;6.56;60.61
68867;SHT30;56451;44.804;20.476;2023-11-19T07:51:14;6.47;60.84
68867;SHT30;56451;44.804;20.476;2023-11-19T07:53:41;6.53;61.12
68867;SHT30;56451;44.804;20.476;2023-11-19T07:56:07;6.54;61.25
68867;SHT30;56451;44.804;20.476;2023-11-19T07:58:33;6.58;61.08
68867;SHT30;56451;44.804;20.476;2023-11-19T08:01:00;6.68;61.16
68867;SHT30;56451;44.804;20.476;2023-11-19T08:03:27;6.77;60.99
68867;SHT30;56451;44.804;20.476;2023-11-19T08:05:55;6.88;60.60
68867;SHT30;56451;44.804;20.476;2023-11-19T08:08:22;6.92;60.40
68867;SHT30;56451;44.804;20.476;2023-11-19T08:10:48;6.98;60.18
68867;SHT30;56451;44.804;20.476;2023-11-19T08:13:14;7.08;59.81
68867;SHT30;56451;44.804;20.476;2023-11-19T08:15:41;7.05;59.51
68867;SHT30;56451;44.804;20.476;2023-11-19T08:18:07;6.98;59.66
68867;SHT30;56451;44.804;20.476;2023-11-19T08:20:33;7.06;59.63
68867;SHT30;56451;44.804;20.476;2023-11-19T08:23:01;7.15;59.55
68867;SHT30;56451;44.804;20.476;2023-11-19T08:25:27;7.13;59.28
68867;SHT30;56451;44.804;20.476;2023-11-19T08:27:53;7.12;59.26
68867;SHT30;56451;44.804;20.476;2023-11-19T08:30:19;7.05;59.44
68867;SHT30;56451;44.804;20.476;2023-11-19T08:32:45;7.11;59.48
68867;SHT30;56451;44.804;20.476;2023-11-19T08:35:15;7.15;59.53
68867;SHT30;56451;44.804;20.476;2023-11-19T08:37:42;7.19;59.63
68867;SHT30;56451;44.804;20.476;2023-11-19T08:40:09;7.25;59.59
68867;SHT30;56451;44.804;20.476;2023-11-19T08:42:35;7.32;59.30
68867;SHT30;56451;44.804;20.476;2023-11-19T08:45:02;7.39;59.30
68867;SHT30;56451;44.804;20.476;2023-11-19T08:47:28;7.42;59.05
68867;SHT30;56451;44.804;20.476;2023-11-19T08:49:54;7.49;59.16
68867;SHT30;56451;44.804;20.476;2023-11-19T08:52:20;7.53;59.17
68867;SHT30;56451;44.804;20.476;2023-11-19T08:54:46;7.63;59.08
68867;SHT30;56451;44.804;20.476;2023-11-19T08:57:12;7.69;58.39
68867;SHT30;56451;44.804;20.476;2023-11-19T08:59:38;7.64;58.59
68867;SHT30;56451;44.804;20.476;2023-11-19T09:02:05;7.66;58.06
68867;SHT30;56451;44.804;20.476;2023-11-19T09:04:31;7.57;57.76
68867;SHT30;56451;44.804;20.476;2023-11-19T09:07:00;7.69;58.31
68867;SHT30;56451;44.804;20.476;2023-11-19T09:09:26;7.81;58.28
68867;SHT30;56451;44.804;20.476;2023-11-19T09:11:51;7.91;58.02
68867;SHT30;56451;44.804;20.476;2023-11-19T09:14:17;8.04;57.54
68867;SHT30;56451;44.804;20.476;2023-11-19T09:16:51;7.98;57.84
68867;SHT30;56451;44.804;20.476;2023-11-19T09:19:18;8.05;57.35
68867;SHT30;56451;44.804;20.476;2023-11-19T09:21:44;8.04;57.09
68867;SHT30;56451;44.804;20.476;2023-11-19T09:24:10;8.01;57.12
68867;SHT30;56451;44.804;20.476;2023-11-19T09:26:36;8.05;57.15
68867;SHT30;56451;44.804;20.476;2023-11-19T09:29:04;8.08;57.12
68867;SHT30;56451;44.804;20.476;2023-11-19T09:31:30;8.25;57.22
68867;SHT30;56451;44.804;20.476;2023-11-19T09:33:56;8.16;56.62
68867;SHT30;56451;44.804;20.476;2023-11-19T09:36:22;8.22;56.28
68867;SHT30;56451;44.804;20.476;2023-11-19T09:38:48;8.19;56.48
68867;SHT30;56451;44.804;20.476;2023-11-19T09:41:15;8.21;56.32
68867;SHT30;56451;44.804;20.476;2023-11-19T09:43:42;8.29;56.42
68867;SHT30;56451;44.804;20.476;2023-11-19T09:46:12;8.33;55.76
68867;SHT30;56451;44.804;20.476;2023-11-19T09:48:39;8.45;55.70
68867;SHT30;56451;44.804;20.476;2023-11-19T09:51:09;8.56;55.67
68867;SHT30;56451;44.804;20.476;2023-11-19T09:53:37;8.66;54.46
68867;SHT30;56451;44.804;20.476;2023-11-19T09:56:07;8.59;55.24
68867;SHT30;56451;44.804;20.476;2023-11-19T09:58:36;8.63;54.81
68867;SHT30;56451;44.804;20.476;2023-11-19T10:01:02;8.83;55.58
68867;SHT30;56451;44.804;20.476;2023-11-19T10:03:39;8.90;53.38
68867;SHT30;56451;44.804;20.476;2023-11-19T10:06:09;8.94;53.61
68867;SHT30;56451;44.804;20.476;2023-11-19T10:08:38;9.04;52.85
68867;SHT30;56451;44.804;20.476;2023-11-19T10:11:08;9.15;52.74
68867;SHT30;56451;44.804;20.476;2023-11-19T10:13:37;9.15;52.15
68867;SHT30;56451;44.804;20.476;2023-11-19T10:16:07;9.07;52.69
68867;SHT30;56451;44.804;20.476;2023-11-19T10:18:34;9.04;52.51
68867;SHT30;56451;44.804;20.476;2023-11-19T10:21:06;9.08;52.71
68867;SHT30;56451;44.804;20.476;2023-11-19T10:23:56;9.07;52.50
68867;SHT30;56451;44.804;20.476;2023-11-19T10:26:27;9.11;52.30
68867;SHT30;56451;44.804;20.476;2023-11-19T10:28:55;9.01;52.36
68867;SHT30;56451;44.804;20.476;2023-11-19T10:31:21;9.00;52.92
68867;SHT30;56451;44.804;20.476;2023-11-19T10:33:52;9.03;52.37
68867;SHT30;56451;44.804;20.476;2023-11-19T10:36:18;9.01;52.60
68867;SHT30;56451;44.804;20.476;2023-11-19T10:38:54;9.07;52.89
68867;SHT30;56451;44.804;20.476;2023-11-19T10:41:30;9.11;51.33
68867;SHT30;56451;44.804;20.476;2023-11-19T10:43:57;9.14;50.91
68867;SHT30;56451;44.804;20.476;2023-11-19T10:46:36;9.15;51.36
68867;SHT30;56451;44.804;20.476;2023-11-19T10:49:02;9.27;51.07
68867;SHT30;56451;44.804;20.476;2023-11-19T10:51:29;9.38;51.63
68867;SHT30;56451;44.804;20.476;2023-11-19T10:54:03;9.43;50.96
68867;SHT30;56451;44.804;20.476;2023-11-19T10:56:32;9.50;50.43
68867;SHT30;56451;44.804;20.476;2023-11-19T10:59:00;9.58;50.04
68867;SHT30;56451;44.804;20.476;2023-11-19T11:01:34;9.66;50.17
68867;SHT30;56451;44.804;20.476;2023-11-19T11:04:02;9.72;49.65
68867;SHT30;56451;44.804;20.476;2023-11-19T11:06:28;9.76;48.79
68867;SHT30;56451;44.804;20.476;2023-11-19T11:08:55;9.67;48.37
68867;SHT30;56451;44.804;20.476;2023-11-19T11:11:22;9.56;48.89
68867;SHT30;56451;44.804;20.476;2023-11-19T11:13:50;9.62;49.65
68867;SHT30;56451;44.804;20.476;2023-11-19T11:16:19;9.73;49.94
68867;SHT30;56451;44.804;20.476;2023-11-19T11:18:48;9.89;49.84
68867;SHT30;56451;44.804;20.476;2023-11-19T11:21:21;10.00;48.60
68867;SHT30;56451;44.804;20.476;2023-11-19T11:24:50;10.11;48.07
68867;SHT30;56451;44.804;20.476;2023-11-19T11:29:48;10.21;47.00
68867;SHT30;56451;44.804;20.476;2023-11-19T11:32:47;10.17;47.59
68867;SHT30;56451;44.804;20.476;2023-11-19T11:38:11;10.25;48.33
68867;SHT30;56451;44.804;20.476;2023-11-19T11:40:39;10.24;47.95
68867;SHT30;56451;44.804;20.476;2023-11-19T11:43:44;10.30;47.81
68867;SHT30;56451;44.804;20.476;2023-11-19T11:49:04;10.52;47.48
68867;SHT30;56451;44.804;20.476;2023-11-19T11:54:25;10.75;47.17
68867;SHT30;56451;44.804;20.476;2023-11-19T11:57:12;10.76;44.88
68867;SHT30;56451;44.804;20.476;2023-11-19T12:02:08;10.69;44.34
68867;SHT30;56451;44.804;20.476;2023-11-19T12:04:36;10.73;44.70
68867;SHT30;56451;44.804;20.476;2023-11-19T12:07:09;10.76;44.95
68867;SHT30;56451;44.804;20.476;2023-11-19T12:09:40;10.73;45.13
68867;SHT30;56451;44.804;20.476;2023-11-19T12:15:12;10.76;44.61
68867;SHT30;56451;44.804;20.476;2023-11-19T12:17:48;10.77;44.40
68867;SHT30;56451;44.804;20.476;2023-11-19T12:20:18;10.80;44.96
68867;SHT30;56451;44.804;20.476;2023-11-19T12:22:45;10.83;44.96
68867;SHT30;56451;44.804;20.476;2023-11-19T12:25:12;10.89;44.37
68867;SHT30;56451;44.804;20.476;2023-11-19T12:27:40;10.95;43.94
68867;SHT30;56451;44.804;20.476;2023-11-19T12:30:07;10.99;43.81
68867;SHT30;56451;44.804;20.476;2023-11-19T12:32:40;11.00;44.05
68867;SHT30;56451;44.804;20.476;2023-11-19T12:35:08;11.03;44.42
68867;SHT30;56451;44.804;20.476;2023-11-19T12:37:41;11.03;44.39
68867;SHT30;56451;44.804;20.476;2023-11-19T12:40:24;11.00;45.09
68867;SHT30;56451;44.804;20.476;2023-11-19T12:42:53;10.92;45.16
68867;SHT30;56451;44.804;20.476;2023-11-19T12:45:20;10.91;44.64
68867;SHT30;56451;44.804;20.476;2023-11-19T12:47:47;10.88;44.66
68867;SHT30;56451;44.804;20.476;2023-11-19T12:50:16;10.89;44.73
68867;SHT30;56451;44.804;20.476;2023-11-19T12:53:04;10.96;44.48
68867;SHT30;56451;44.804;20.476;2023-11-19T12:55:30;10.99;44.84
68867;SHT30;56451;44.804;20.476;2023-11-19T12:57:58;11.03;44.39
68867;SHT30;56451;44.804;20.476;2023-11-19T13:00:26;10.97;44.45
68867;SHT30;56451;44.804;20.476;2023-11-19T13:02:54;10.99;44.71
68867;SHT30;56451;44.804;20.476;2023-11-19T13:05:40;10.96;44.36
68867;SHT30;56451;44.804;20.476;2023-11-19T13:08:09;10.92;44.28
68867;SHT30;56451;44.804;20.476;2023-11-19T13:11:05;10.92;44.24
68867;SHT30;56451;44.804;20.476;2023-11-19T13:13:32;10.95;44.83
68867;SHT30;56451;44.804;20.476;2023-11-19T13:16:05;10.96;44.95
68867;SHT30;56451;44.804;20.476;2023-11-19T13:18:34;10.99;44.97
68867;SHT30;56451;44.804;20.476;2023-11-19T13:21:00;11.03;44.59
68867;SHT30;56451;44.804;20.476;2023-11-19T13:23:26;11.07;44.35
68867;SHT30;56451;44.804;20.476;2023-11-19T13:25:52;11.12;43.75
68867;SHT30;56451;44.804;20.476;2023-11-19T13:28:18;11.19;44.38
68867;SHT30;56451;44.804;20.476;2023-11-19T13:30:44;11.23;44.02
68867;SHT30;56451;44.804;20.476;2023-11-19T13:33:10;11.28;43.37
68867;SHT30;56451;44.804;20.476;2023-11-19T13:35:38;11.31;43.46
68867;SHT30;56451;44.804;20.476;2023-11-19T13:38:06;11.34;43.98
68867;SHT30;56451;44.804;20.476;2023-11-19T13:40:34;11.34;44.26
68867;SHT30;56451;44.804;20.476;2023-11-19T13:43:01;11.38;43.43
68867;SHT30;56451;44.804;20.476;2023-11-19T13:45:27;11.38;43.74
68867;SHT30;56451;44.804;20.476;2023-11-19T13:47:53;11.31;43.00
68867;SHT30;56451;44.804;20.476;2023-11-19T13:50:19;11.28;43.58
68867;SHT30;56451;44.804;20.476;2023-11-19T13:52:46;11.27;43.74
68867;SHT30;56451;44.804;20.476;2023-11-19T13:55:13;11.28;44.50
68867;SHT30;56451;44.804;20.476;2023-11-19T13:57:40;11.31;45.00
68867;SHT30;56451;44.804;20.476;2023-11-19T14:00:07;11.38;45.50
68867;SHT30;56451;44.804;20.476;2023-11-19T14:02:42;11.47;45.59
68867;SHT30;56451;44.804;20.476;2023-11-19T14:05:09;11.51;45.52
68867;SHT30;56451;44.804;20.476;2023-11-19T14:07:40;11.55;45.07
68867;SHT30;56451;44.804;20.476;2023-11-19T14:10:06;11.57;44.77
68867;SHT30;56451;44.804;20.476;2023-11-19T14:12:35;11.57;44.78
68867;SHT30;56451;44.804;20.476;2023-11-19T14:15:03;11.55;45.03
68867;SHT30;56451;44.804;20.476;2023-11-19T14:17:31;11.51;45.37
68867;SHT30;56451;44.804;20.476;2023-11-19T14:19:57;11.50;45.58
68867;SHT30;56451;44.804;20.476;2023-11-19T14:22:23;11.50;45.80
68867;SHT30;56451;44.804;20.476;2023-11-19T14:24:50;11.51;45.78
68867;SHT30;56451;44.804;20.476;2023-11-19T14:27:16;11.54;45.84
68867;SHT30;56451;44.804;20.476;2023-11-19T14:29:43;11.54;45.39
68867;SHT30;56451;44.804;20.476;2023-11-19T14:32:12;11.57;45.61
68867;SHT30;56451;44.804;20.476;2023-11-19T14:34:38;11.58;45.59
68867;SHT30;56451;44.804;20.476;2023-11-19T14:37:04;11.61;45.42
68867;SHT30;56451;44.804;20.476;2023-11-19T14:39:30;11.61;45.18
68867;SHT30;56451;44.804;20.476;2023-11-19T14:41:59;11.54;45.46
68867;SHT30;56451;44.804;20.476;2023-11-19T14:44:30;11.51;45.74
68867;SHT30;56451;44.804;20.476;2023-11-19T14:46:56;11.48;45.85
68867;SHT30;56451;44.804;20.476;2023-11-19T14:49:22;11.50;46.13
68867;SHT30;56451;44.804;20.476;2023-11-19T14:51:50;11.45;46.43
68867;SHT30;56451;44.804;20.476;2023-11-19T14:54:18;11.44;46.79
68867;SHT30;56451;44.804;20.476;2023-11-19T14:56:45;11.34;46.56
68867;SHT30;56451;44.804;20.476;2023-11-19T14:59:11;11.35;47.10
68867;SHT30;56451;44.804;20.476;2023-11-19T15:01:38;11.34;46.99
68867;SHT30;56451;44.804;20.476;2023-11-19T15:04:07;11.28;47.21
68867;SHT30;56451;44.804;20.476;2023-11-19T15:06:33;11.22;47.56
68867;SHT30;56451;44.804;20.476;2023-11-19T15:08:59;11.16;47.58
68867;SHT30;56451;44.804;20.476;2023-11-19T15:11:25;11.10;47.94
68867;SHT30;56451;44.804;20.476;2023-11-19T15:13:52;11.00;48.31
68867;SHT30;56451;44.804;20.476;2023-11-19T15:16:18;10.97;48.25
68867;SHT30;56451;44.804;20.476;2023-11-19T15:18:50;10.93;48.04
68867;SHT30;56451;44.804;20.476;2023-11-19T15:21:16;10.83;48.02
68867;SHT30;56451;44.804;20.476;2023-11-19T15:23:43;10.77;48.16
68867;SHT30;56451;44.804;20.476;2023-11-19T15:26:09;10.73;48.20
68867;SHT30;56451;44.804;20.476;2023-11-19T15:28:37;10.72;48.62
68867;SHT30;56451;44.804;20.476;2023-11-19T15:31:04;10.66;48.65
68867;SHT30;56451;44.804;20.476;2023-11-19T15:33:30;10.66;48.76
68867;SHT30;56451;44.804;20.476;2023-11-19T15:35:56;10.68;48.84
68867;SHT30;56451;44.804;20.476;2023-11-19T15:38:24;10.61;49.10
68867;SHT30;56451;44.804;20.476;2023-11-19T15:40:51;10.59;48.80
68867;SHT30;56451;44.804;20.476;2023-11-19T15:43:19;10.54;48.94
68867;SHT30;56451;44.804;20.476;2023-11-19T15:45:47;10.49;49.02
68867;SHT30;56451;44.804;20.476;2023-11-19T15:48:14;10.51;49.04
68867;SHT30;56451;44.804;20.476;2023-11-19T15:50:42;10.42;49.15
68867;SHT30;56451;44.804;20.476;2023-11-19T15:53:10;10.44;49.52